sensor_id;sensor_type;location;lat;lon;timestamp;P1;durP1;ratioP1;P2;durP2;ratioP2
74920;SDS011;63483;47.384;8.860;2023-07-08T00:02:07;5.20;;;2.33;;
74920;SDS011;63483;47.384;8.860;2023-07-08T00:04:34;6.93;;;2.75;;
74920;SDS011;63483;47.384;8.860;2023-07-08T00:06:59;5.00;;;2.60;;
74920;SDS011;63483;47.384;8.860;2023-07-08T00:09:25;8.00;;;2.87;;
74920;SDS011;63483;47.384;8.860;2023-07-08T00:11:50;6.33;;;2.60;;
74920;SDS011;63483;47.384;8.860;2023-07-08T00:14:16;7.72;;;2.88;;
74920;SDS011;63483;47.384;8.860;2023-07-08T00:16:41;8.37;;;2.80;;
74920;SDS011;63483;47.384;8.860;2023-07-08T00:19:09;7.07;;;3.00;;
74920;SDS011;63483;47.384;8.860;2023-07-08T00:21:35;5.82;;;2.42;;
74920;SDS011;63483;47.384;8.860;2023-07-08T00:24:01;7.63;;;2.90;;
74920;SDS011;63483;47.384;8.860;2023-07-08T00:26:27;9.90;;;3.03;;
74920;SDS011;63483;47.384;8.860;2023-07-08T00:28:54;9.00;;;2.90;;
74920;SDS011;63483;47.384;8.860;2023-07-08T00:31:21;7.50;;;2.75;;
74920;SDS011;63483;47.384;8.860;2023-07-08T00:33:49;6.78;;;2.95;;
74920;SDS011;63483;47.384;8.860;2023-07-08T00:36:15;8.48;;;3.17;;
74920;SDS011;63483;47.384;8.860;2023-07-08T00:38:42;7.60;;;2.90;;
74920;SDS011;63483;47.384;8.860;2023-07-08T00:41:17;6.77;;;3.03;;
74920;SDS011;63483;47.384;8.860;2023-07-08T00:43:53;7.10;;;2.70;;
74920;SDS011;63483;47.384;8.860;2023-07-08T00:49:00;6.28;;;2.50;;
74920;SDS011;63483;47.384;8.860;2023-07-08T00:51:37;6.47;;;2.75;;
74920;SDS011;63483;47.384;8.860;2023-07-08T00:54:04;8.20;;;3.50;;
74920;SDS011;63483;47.384;8.860;2023-07-08T00:56:32;5.82;;;2.92;;
74920;SDS011;63483;47.384;8.860;2023-07-08T00:59:04;6.28;;;2.60;;
74920;SDS011;63483;47.384;8.860;2023-07-08T01:01:37;7.22;;;2.95;;
74920;SDS011;63483;47.384;8.860;2023-07-08T01:04:07;6.05;;;2.88;;
74920;SDS011;63483;47.384;8.860;2023-07-08T01:06:45;6.40;;;2.80;;
74920;SDS011;63483;47.384;8.860;2023-07-08T01:09:18;5.30;;;2.30;;
74920;SDS011;63483;47.384;8.860;2023-07-08T01:11:43;6.47;;;2.85;;
74920;SDS011;63483;47.384;8.860;2023-07-08T01:14:11;6.37;;;2.80;;
74920;SDS011;63483;47.384;8.860;2023-07-08T01:16:41;10.07;;;2.63;;
74920;SDS011;63483;47.384;8.860;2023-07-08T01:19:08;10.45;;;2.83;;
74920;SDS011;63483;47.384;8.860;2023-07-08T01:24:19;6.90;;;2.50;;
74920;SDS011;63483;47.384;8.860;2023-07-08T01:26:44;5.87;;;2.67;;
74920;SDS011;63483;47.384;8.860;2023-07-08T01:29:11;7.05;;;2.45;;
74920;SDS011;63483;47.384;8.860;2023-07-08T01:31:37;9.10;;;2.60;;
74920;SDS011;63483;47.384;8.860;2023-07-08T01:34:03;6.30;;;2.92;;
74920;SDS011;63483;47.384;8.860;2023-07-08T01:36:31;6.82;;;2.83;;
74920;SDS011;63483;47.384;8.860;2023-07-08T01:39:02;5.90;;;2.20;;
74920;SDS011;63483;47.384;8.860;2023-07-08T01:41:28;6.30;;;2.53;;
74920;SDS011;63483;47.384;8.860;2023-07-08T01:43:53;8.43;;;3.00;;
74920;SDS011;63483;47.384;8.860;2023-07-08T01:46:22;6.27;;;2.60;;
74920;SDS011;63483;47.384;8.860;2023-07-08T01:48:52;7.50;;;2.47;;
74920;SDS011;63483;47.384;8.860;2023-07-08T01:51:21;8.60;;;3.17;;
74920;SDS011;63483;47.384;8.860;2023-07-08T01:53:49;6.80;;;2.63;;
74920;SDS011;63483;47.384;8.860;2023-07-08T01:56:14;8.43;;;3.27;;
74920;SDS011;63483;47.384;8.860;2023-07-08T01:58:40;6.10;;;2.75;;
74920;SDS011;63483;47.384;8.860;2023-07-08T02:01:06;5.85;;;2.80;;
74920;SDS011;63483;47.384;8.860;2023-07-08T02:03:32;6.27;;;2.90;;
74920;SDS011;63483;47.384;8.860;2023-07-08T02:05:57;6.90;;;2.97;;
74920;SDS011;63483;47.384;8.860;2023-07-08T02:08:23;6.20;;;2.87;;
74920;SDS011;63483;47.384;8.860;2023-07-08T02:10:49;7.27;;;3.00;;
74920;SDS011;63483;47.384;8.860;2023-07-08T02:13:17;6.78;;;2.92;;
74920;SDS011;63483;47.384;8.860;2023-07-08T02:15:42;8.57;;;2.40;;
74920;SDS011;63483;47.384;8.860;2023-07-08T02:18:08;6.13;;;2.53;;
74920;SDS011;63483;47.384;8.860;2023-07-08T02:20:33;7.93;;;2.60;;
74920;SDS011;63483;47.384;8.860;2023-07-08T02:22:58;10.50;;;3.23;;
74920;SDS011;63483;47.384;8.860;2023-07-08T02:25:23;10.23;;;3.10;;
74920;SDS011;63483;47.384;8.860;2023-07-08T02:27:49;5.77;;;2.67;;
74920;SDS011;63483;47.384;8.860;2023-07-08T02:30:14;7.22;;;2.80;;
74920;SDS011;63483;47.384;8.860;2023-07-08T02:32:40;7.23;;;2.57;;
74920;SDS011;63483;47.384;8.860;2023-07-08T02:35:06;7.83;;;2.67;;
74920;SDS011;63483;47.384;8.860;2023-07-08T02:37:33;7.18;;;2.83;;
74920;SDS011;63483;47.384;8.860;2023-07-08T02:39:58;6.13;;;2.67;;
74920;SDS011;63483;47.384;8.860;2023-07-08T02:42:24;5.70;;;2.70;;
74920;SDS011;63483;47.384;8.860;2023-07-08T02:44:49;6.43;;;2.30;;
74920;SDS011;63483;47.384;8.860;2023-07-08T02:47:14;7.90;;;2.50;;
74920;SDS011;63483;47.384;8.860;2023-07-08T02:49:40;5.27;;;2.60;;
74920;SDS011;63483;47.384;8.860;2023-07-08T02:52:05;5.97;;;2.53;;
74920;SDS011;63483;47.384;8.860;2023-07-08T02:54:31;8.00;;;2.20;;
74920;SDS011;63483;47.384;8.860;2023-07-08T02:56:56;7.43;;;2.43;;
74920;SDS011;63483;47.384;8.860;2023-07-08T02:59:21;8.40;;;2.60;;
74920;SDS011;63483;47.384;8.860;2023-07-08T03:01:47;7.33;;;2.70;;
74920;SDS011;63483;47.384;8.860;2023-07-08T03:04:12;8.70;;;2.73;;
74920;SDS011;63483;47.384;8.860;2023-07-08T03:06:41;9.50;;;2.47;;
74920;SDS011;63483;47.384;8.860;2023-07-08T03:09:08;6.33;;;2.20;;
74920;SDS011;63483;47.384;8.860;2023-07-08T03:11:35;5.53;;;1.92;;
74920;SDS011;63483;47.384;8.860;2023-07-08T03:14:01;6.82;;;2.63;;
74920;SDS011;63483;47.384;8.860;2023-07-08T03:16:27;8.10;;;2.40;;
74920;SDS011;63483;47.384;8.860;2023-07-08T03:18:52;6.50;;;2.40;;
74920;SDS011;63483;47.384;8.860;2023-07-08T03:21:18;6.60;;;2.63;;
74920;SDS011;63483;47.384;8.860;2023-07-08T03:23:43;9.27;;;2.50;;
74920;SDS011;63483;47.384;8.860;2023-07-08T03:26:12;6.93;;;2.70;;
74920;SDS011;63483;47.384;8.860;2023-07-08T03:28:40;6.95;;;2.20;;
74920;SDS011;63483;47.384;8.860;2023-07-08T03:31:07;7.73;;;2.53;;
74920;SDS011;63483;47.384;8.860;2023-07-08T03:33:34;5.85;;;2.28;;
74920;SDS011;63483;47.384;8.860;2023-07-08T03:36:00;5.67;;;2.30;;
74920;SDS011;63483;47.384;8.860;2023-07-08T03:38:26;8.18;;;2.70;;
74920;SDS011;63483;47.384;8.860;2023-07-08T03:40:51;6.27;;;1.93;;
74920;SDS011;63483;47.384;8.860;2023-07-08T03:43:16;7.17;;;2.17;;
74920;SDS011;63483;47.384;8.860;2023-07-08T03:45:42;6.17;;;2.30;;
74920;SDS011;63483;47.384;8.860;2023-07-08T03:48:09;7.88;;;2.30;;
74920;SDS011;63483;47.384;8.860;2023-07-08T03:50:35;7.82;;;2.40;;
74920;SDS011;63483;47.384;8.860;2023-07-08T03:53:01;8.10;;;2.43;;
74920;SDS011;63483;47.384;8.860;2023-07-08T03:55:26;5.13;;;2.50;;
74920;SDS011;63483;47.384;8.860;2023-07-08T03:57:53;5.22;;;2.45;;
74920;SDS011;63483;47.384;8.860;2023-07-08T04:00:18;5.53;;;2.57;;
74920;SDS011;63483;47.384;8.860;2023-07-08T04:02:44;6.10;;;2.47;;
74920;SDS011;63483;47.384;8.860;2023-07-08T04:05:18;5.82;;;2.47;;
74920;SDS011;63483;47.384;8.860;2023-07-08T04:07:45;3.90;;;2.00;;
74920;SDS011;63483;47.384;8.860;2023-07-08T04:10:12;6.00;;;2.47;;
74920;SDS011;63483;47.384;8.860;2023-07-08T04:12:38;6.47;;;2.33;;
74920;SDS011;63483;47.384;8.860;2023-07-08T04:15:05;5.15;;;2.17;;
74920;SDS011;63483;47.384;8.860;2023-07-08T04:17:32;7.53;;;2.15;;
74920;SDS011;63483;47.384;8.860;2023-07-08T04:19:57;7.43;;;2.97;;
74920;SDS011;63483;47.384;8.860;2023-07-08T04:22:23;6.13;;;1.93;;
74920;SDS011;63483;47.384;8.860;2023-07-08T04:24:49;5.28;;;1.98;;
74920;SDS011;63483;47.384;8.860;2023-07-08T04:27:15;4.57;;;2.07;;
74920;SDS011;63483;47.384;8.860;2023-07-08T04:29:42;5.15;;;1.75;;
74920;SDS011;63483;47.384;8.860;2023-07-08T04:32:08;5.13;;;1.77;;
74920;SDS011;63483;47.384;8.860;2023-07-08T04:34:33;5.13;;;1.90;;
74920;SDS011;63483;47.384;8.860;2023-07-08T04:36:59;4.73;;;2.40;;
74920;SDS011;63483;47.384;8.860;2023-07-08T04:39:24;7.27;;;2.20;;
74920;SDS011;63483;47.384;8.860;2023-07-08T04:41:49;6.77;;;2.00;;
74920;SDS011;63483;47.384;8.860;2023-07-08T04:44:15;5.43;;;2.03;;
74920;SDS011;63483;47.384;8.860;2023-07-08T04:46:57;8.53;;;2.40;;
74920;SDS011;63483;47.384;8.860;2023-07-08T04:49:23;6.55;;;2.30;;
74920;SDS011;63483;47.384;8.860;2023-07-08T04:51:50;4.65;;;2.10;;
74920;SDS011;63483;47.384;8.860;2023-07-08T04:54:16;5.35;;;1.80;;
74920;SDS011;63483;47.384;8.860;2023-07-08T04:56:43;7.20;;;2.00;;
74920;SDS011;63483;47.384;8.860;2023-07-08T04:59:11;4.85;;;1.75;;
74920;SDS011;63483;47.384;8.860;2023-07-08T05:01:38;6.68;;;2.03;;
74920;SDS011;63483;47.384;8.860;2023-07-08T05:04:05;5.30;;;2.00;;
74920;SDS011;63483;47.384;8.860;2023-07-08T05:06:31;7.90;;;1.65;;
74920;SDS011;63483;47.384;8.860;2023-07-08T05:08:57;4.82;;;1.73;;
74920;SDS011;63483;47.384;8.860;2023-07-08T05:11:23;5.13;;;1.90;;
74920;SDS011;63483;47.384;8.860;2023-07-08T05:13:49;5.77;;;1.90;;
74920;SDS011;63483;47.384;8.860;2023-07-08T05:16:14;4.43;;;1.93;;
74920;SDS011;63483;47.384;8.860;2023-07-08T05:18:40;5.07;;;1.77;;
74920;SDS011;63483;47.384;8.860;2023-07-08T05:21:05;6.70;;;2.28;;
74920;SDS011;63483;47.384;8.860;2023-07-08T05:23:31;3.83;;;2.27;;
74920;SDS011;63483;47.384;8.860;2023-07-08T05:25:58;4.90;;;1.73;;
74920;SDS011;63483;47.384;8.860;2023-07-08T05:28:26;7.28;;;2.30;;
74920;SDS011;63483;47.384;8.860;2023-07-08T05:30:54;3.93;;;1.50;;
74920;SDS011;63483;47.384;8.860;2023-07-08T05:33:23;3.33;;;1.50;;
74920;SDS011;63483;47.384;8.860;2023-07-08T05:35:49;4.10;;;1.60;;
74920;SDS011;63483;47.384;8.860;2023-07-08T05:38:15;4.60;;;1.60;;
74920;SDS011;63483;47.384;8.860;2023-07-08T05:40:40;3.70;;;1.20;;
74920;SDS011;63483;47.384;8.860;2023-07-08T05:43:06;3.33;;;1.23;;
74920;SDS011;63483;47.384;8.860;2023-07-08T05:45:31;3.80;;;1.75;;
74920;SDS011;63483;47.384;8.860;2023-07-08T05:47:57;4.23;;;1.20;;
74920;SDS011;63483;47.384;8.860;2023-07-08T05:50:22;3.80;;;1.37;;
74920;SDS011;63483;47.384;8.860;2023-07-08T05:52:47;4.43;;;1.40;;
74920;SDS011;63483;47.384;8.860;2023-07-08T05:55:13;2.80;;;1.33;;
74920;SDS011;63483;47.384;8.860;2023-07-08T05:57:38;3.67;;;1.73;;
74920;SDS011;63483;47.384;8.860;2023-07-08T06:00:04;4.00;;;2.15;;
74920;SDS011;63483;47.384;8.860;2023-07-08T06:02:30;3.73;;;1.60;;
74920;SDS011;63483;47.384;8.860;2023-07-08T06:04:55;4.30;;;1.42;;
74920;SDS011;63483;47.384;8.860;2023-07-08T06:07:20;2.93;;;1.60;;
74920;SDS011;63483;47.384;8.860;2023-07-08T06:09:46;4.00;;;1.37;;
74920;SDS011;63483;47.384;8.860;2023-07-08T06:12:11;3.43;;;1.27;;
74920;SDS011;63483;47.384;8.860;2023-07-08T06:14:37;4.70;;;1.20;;
74920;SDS011;63483;47.384;8.860;2023-07-08T06:17:03;3.53;;;1.15;;
74920;SDS011;63483;47.384;8.860;2023-07-08T06:19:29;3.55;;;1.52;;
74920;SDS011;63483;47.384;8.860;2023-07-08T06:21:54;3.37;;;1.20;;
74920;SDS011;63483;47.384;8.860;2023-07-08T06:24:20;3.70;;;1.27;;
74920;SDS011;63483;47.384;8.860;2023-07-08T06:26:45;3.03;;;1.20;;
74920;SDS011;63483;47.384;8.860;2023-07-08T06:29:11;2.85;;;0.93;;
74920;SDS011;63483;47.384;8.860;2023-07-08T06:31:36;4.53;;;1.00;;
74920;SDS011;63483;47.384;8.860;2023-07-08T06:34:02;2.40;;;1.00;;
74920;SDS011;63483;47.384;8.860;2023-07-08T06:36:27;2.63;;;1.20;;
74920;SDS011;63483;47.384;8.860;2023-07-08T06:38:53;2.10;;;0.93;;
74920;SDS011;63483;47.384;8.860;2023-07-08T06:41:18;2.50;;;1.30;;
74920;SDS011;63483;47.384;8.860;2023-07-08T06:43:43;4.00;;;1.20;;
74920;SDS011;63483;47.384;8.860;2023-07-08T06:46:09;3.80;;;1.00;;
74920;SDS011;63483;47.384;8.860;2023-07-08T06:48:34;3.97;;;0.97;;
74920;SDS011;63483;47.384;8.860;2023-07-08T06:51:00;2.42;;;0.88;;
74920;SDS011;63483;47.384;8.860;2023-07-08T06:53:25;3.00;;;0.97;;
74920;SDS011;63483;47.384;8.860;2023-07-08T06:55:50;2.73;;;0.77;;
74920;SDS011;63483;47.384;8.860;2023-07-08T06:58:16;2.33;;;0.90;;
74920;SDS011;63483;47.384;8.860;2023-07-08T07:00:42;2.42;;;0.68;;
74920;SDS011;63483;47.384;8.860;2023-07-08T07:03:08;2.47;;;0.80;;
74920;SDS011;63483;47.384;8.860;2023-07-08T07:05:33;1.97;;;0.70;;
74920;SDS011;63483;47.384;8.860;2023-07-08T07:07:59;2.27;;;0.77;;
74920;SDS011;63483;47.384;8.860;2023-07-08T07:10:24;3.47;;;1.10;;
74920;SDS011;63483;47.384;8.860;2023-07-08T07:12:49;2.30;;;1.10;;
74920;SDS011;63483;47.384;8.860;2023-07-08T07:15:14;2.43;;;0.90;;
74920;SDS011;63483;47.384;8.860;2023-07-08T07:17:40;3.30;;;1.03;;
74920;SDS011;63483;47.384;8.860;2023-07-08T07:20:05;2.33;;;0.83;;
74920;SDS011;63483;47.384;8.860;2023-07-08T07:22:31;2.47;;;1.07;;
74920;SDS011;63483;47.384;8.860;2023-07-08T07:24:56;3.00;;;1.17;;
74920;SDS011;63483;47.384;8.860;2023-07-08T07:27:23;4.57;;;0.90;;
74920;SDS011;63483;47.384;8.860;2023-07-08T07:29:49;2.97;;;0.90;;
74920;SDS011;63483;47.384;8.860;2023-07-08T07:32:16;2.13;;;0.80;;
74920;SDS011;63483;47.384;8.860;2023-07-08T07:34:45;2.10;;;0.95;;
74920;SDS011;63483;47.384;8.860;2023-07-08T07:37:12;2.50;;;1.08;;
74920;SDS011;63483;47.384;8.860;2023-07-08T07:39:38;3.03;;;1.10;;
74920;SDS011;63483;47.384;8.860;2023-07-08T07:42:04;2.23;;;1.20;;
74920;SDS011;63483;47.384;8.860;2023-07-08T07:44:30;2.00;;;0.90;;
74920;SDS011;63483;47.384;8.860;2023-07-08T07:46:55;2.97;;;1.00;;
74920;SDS011;63483;47.384;8.860;2023-07-08T07:49:21;2.57;;;1.30;;
74920;SDS011;63483;47.384;8.860;2023-07-08T07:51:46;2.35;;;0.82;;
74920;SDS011;63483;47.384;8.860;2023-07-08T07:54:12;3.83;;;1.00;;
74920;SDS011;63483;47.384;8.860;2023-07-08T07:56:37;3.03;;;0.80;;
74920;SDS011;63483;47.384;8.860;2023-07-08T07:59:02;2.73;;;0.80;;
74920;SDS011;63483;47.384;8.860;2023-07-08T08:01:28;2.28;;;1.00;;
74920;SDS011;63483;47.384;8.860;2023-07-08T08:03:54;2.77;;;0.80;;
74920;SDS011;63483;47.384;8.860;2023-07-08T08:06:19;3.87;;;1.27;;
74920;SDS011;63483;47.384;8.860;2023-07-08T08:08:45;3.53;;;1.00;;
74920;SDS011;63483;47.384;8.860;2023-07-08T08:11:10;2.77;;;1.10;;
74920;SDS011;63483;47.384;8.860;2023-07-08T08:13:37;2.60;;;1.10;;
74920;SDS011;63483;47.384;8.860;2023-07-08T08:16:03;2.22;;;0.88;;
74920;SDS011;63483;47.384;8.860;2023-07-08T08:18:28;5.00;;;1.35;;
74920;SDS011;63483;47.384;8.860;2023-07-08T08:20:54;2.73;;;1.07;;
74920;SDS011;63483;47.384;8.860;2023-07-08T08:23:20;3.27;;;1.10;;
74920;SDS011;63483;47.384;8.860;2023-07-08T08:25:45;3.10;;;1.10;;
74920;SDS011;63483;47.384;8.860;2023-07-08T08:28:10;3.87;;;1.10;;
74920;SDS011;63483;47.384;8.860;2023-07-08T08:30:36;2.17;;;1.00;;
74920;SDS011;63483;47.384;8.860;2023-07-08T08:33:01;3.10;;;1.17;;
74920;SDS011;63483;47.384;8.860;2023-07-08T08:35:27;2.90;;;1.20;;
74920;SDS011;63483;47.384;8.860;2023-07-08T08:37:53;3.03;;;1.23;;
74920;SDS011;63483;47.384;8.860;2023-07-08T08:40:19;3.63;;;1.40;;
74920;SDS011;63483;47.384;8.860;2023-07-08T08:42:51;2.78;;;1.13;;
74920;SDS011;63483;47.384;8.860;2023-07-08T08:45:22;3.90;;;0.95;;
74920;SDS011;63483;47.384;8.860;2023-07-08T08:47:54;2.70;;;1.05;;
74920;SDS011;63483;47.384;8.860;2023-07-08T08:50:44;10.20;;;1.40;;
74920;SDS011;63483;47.384;8.860;2023-07-08T08:53:16;2.60;;;0.90;;
74920;SDS011;63483;47.384;8.860;2023-07-08T08:55:42;4.45;;;1.30;;
74920;SDS011;63483;47.384;8.860;2023-07-08T09:01:10;2.60;;;1.48;;
74920;SDS011;63483;47.384;8.860;2023-07-08T09:06:19;2.80;;;1.10;;
74920;SDS011;63483;47.384;8.860;2023-07-08T09:08:45;3.78;;;1.27;;
74920;SDS011;63483;47.384;8.860;2023-07-08T09:13:58;3.03;;;0.82;;
74920;SDS011;63483;47.384;8.860;2023-07-08T09:16:30;3.37;;;1.50;;
74920;SDS011;63483;47.384;8.860;2023-07-08T09:19:09;4.22;;;1.40;;
74920;SDS011;63483;47.384;8.860;2023-07-08T09:24:17;2.43;;;1.10;;
74920;SDS011;63483;47.384;8.860;2023-07-08T09:26:49;2.58;;;1.08;;
74920;SDS011;63483;47.384;8.860;2023-07-08T09:29:17;2.42;;;1.08;;
74920;SDS011;63483;47.384;8.860;2023-07-08T09:31:43;4.10;;;1.80;;
74920;SDS011;63483;47.384;8.860;2023-07-08T09:34:12;2.67;;;1.20;;
74920;SDS011;63483;47.384;8.860;2023-07-08T09:36:41;3.42;;;1.13;;
74920;SDS011;63483;47.384;8.860;2023-07-08T09:39:15;3.05;;;1.40;;
74920;SDS011;63483;47.384;8.860;2023-07-08T09:41:43;2.28;;;1.00;;
74920;SDS011;63483;47.384;8.860;2023-07-08T09:44:15;2.63;;;1.10;;
74920;SDS011;63483;47.384;8.860;2023-07-08T09:46:41;2.30;;;1.17;;
74920;SDS011;63483;47.384;8.860;2023-07-08T09:49:21;3.83;;;1.38;;
74920;SDS011;63483;47.384;8.860;2023-07-08T09:51:49;2.83;;;1.20;;
74920;SDS011;63483;47.384;8.860;2023-07-08T09:54:16;2.50;;;1.10;;
74920;SDS011;63483;47.384;8.860;2023-07-08T09:56:44;2.47;;;1.40;;
74920;SDS011;63483;47.384;8.860;2023-07-08T09:59:17;3.88;;;2.00;;
74920;SDS011;63483;47.384;8.860;2023-07-08T10:01:45;7.53;;;5.13;;
74920;SDS011;63483;47.384;8.860;2023-07-08T10:04:11;8.03;;;6.03;;
74920;SDS011;63483;47.384;8.860;2023-07-08T10:06:37;13.90;;;11.80;;
74920;SDS011;63483;47.384;8.860;2023-07-08T10:09:03;17.67;;;16.00;;
74920;SDS011;63483;47.384;8.860;2023-07-08T10:11:41;11.90;;;10.80;;
74920;SDS011;63483;47.384;8.860;2023-07-08T10:16:41;24.05;;;21.83;;
74920;SDS011;63483;47.384;8.860;2023-07-08T10:19:13;18.63;;;16.80;;
74920;SDS011;63483;47.384;8.860;2023-07-08T10:26:49;5.82;;;3.20;;
74920;SDS011;63483;47.384;8.860;2023-07-08T10:29:29;4.43;;;3.15;;
74920;SDS011;63483;47.384;8.860;2023-07-08T10:32:11;4.20;;;1.90;;
74920;SDS011;63483;47.384;8.860;2023-07-08T10:34:51;4.30;;;2.00;;
74920;SDS011;63483;47.384;8.860;2023-07-08T10:45:34;3.28;;;1.48;;
74920;SDS011;63483;47.384;8.860;2023-07-08T10:56:13;4.97;;;1.40;;
74920;SDS011;63483;47.384;8.860;2023-07-08T11:04:33;3.20;;;1.30;;
74920;SDS011;63483;47.384;8.860;2023-07-08T11:06:59;3.50;;;1.60;;
74920;SDS011;63483;47.384;8.860;2023-07-08T11:09:38;2.63;;;1.33;;
74920;SDS011;63483;47.384;8.860;2023-07-08T11:12:11;3.53;;;1.50;;
74920;SDS011;63483;47.384;8.860;2023-07-08T11:15:08;3.35;;;1.50;;
74920;SDS011;63483;47.384;8.860;2023-07-08T11:20:18;5.97;;;1.52;;
74920;SDS011;63483;47.384;8.860;2023-07-08T11:22:56;4.63;;;1.45;;
74920;SDS011;63483;47.384;8.860;2023-07-08T11:25:29;2.40;;;1.50;;
74920;SDS011;63483;47.384;8.860;2023-07-08T11:27:57;2.38;;;1.20;;
74920;SDS011;63483;47.384;8.860;2023-07-08T11:30:29;3.63;;;1.57;;
74920;SDS011;63483;47.384;8.860;2023-07-08T11:32:58;2.90;;;1.17;;
74920;SDS011;63483;47.384;8.860;2023-07-08T11:35:34;4.10;;;1.50;;
74920;SDS011;63483;47.384;8.860;2023-07-08T11:38:02;2.75;;;1.45;;
74920;SDS011;63483;47.384;8.860;2023-07-08T11:40:29;6.32;;;1.20;;
74920;SDS011;63483;47.384;8.860;2023-07-08T11:43:02;3.53;;;2.00;;
74920;SDS011;63483;47.384;8.860;2023-07-08T11:45:35;4.55;;;1.50;;
74920;SDS011;63483;47.384;8.860;2023-07-08T11:48:04;4.45;;;1.85;;
74920;SDS011;63483;47.384;8.860;2023-07-08T11:50:37;3.30;;;1.40;;
74920;SDS011;63483;47.384;8.860;2023-07-08T11:55:36;3.28;;;1.40;;
74920;SDS011;63483;47.384;8.860;2023-07-08T11:58:08;2.33;;;1.50;;
74920;SDS011;63483;47.384;8.860;2023-07-08T12:00:51;4.07;;;1.50;;
74920;SDS011;63483;47.384;8.860;2023-07-08T12:03:54;3.83;;;1.40;;
74920;SDS011;63483;47.384;8.860;2023-07-08T12:08:52;3.85;;;1.80;;
74920;SDS011;63483;47.384;8.860;2023-07-08T12:11:19;3.60;;;1.65;;
74920;SDS011;63483;47.384;8.860;2023-07-08T12:13:51;4.03;;;1.83;;
74920;SDS011;63483;47.384;8.860;2023-07-08T12:16:17;4.00;;;1.90;;
74920;SDS011;63483;47.384;8.860;2023-07-08T12:18:43;3.22;;;1.92;;
74920;SDS011;63483;47.384;8.860;2023-07-08T12:21:11;3.20;;;1.70;;
74920;SDS011;63483;47.384;8.860;2023-07-08T12:23:43;3.00;;;1.75;;
74920;SDS011;63483;47.384;8.860;2023-07-08T12:26:09;5.20;;;2.60;;
74920;SDS011;63483;47.384;8.860;2023-07-08T12:28:38;4.27;;;2.20;;
74920;SDS011;63483;47.384;8.860;2023-07-08T12:31:15;7.17;;;2.50;;
74920;SDS011;63483;47.384;8.860;2023-07-08T12:33:43;3.80;;;2.00;;
74920;SDS011;63483;47.384;8.860;2023-07-08T12:36:09;3.97;;;1.83;;
74920;SDS011;63483;47.384;8.860;2023-07-08T12:38:39;3.35;;;1.92;;
74920;SDS011;63483;47.384;8.860;2023-07-08T12:41:20;4.13;;;2.22;;
74920;SDS011;63483;47.384;8.860;2023-07-08T12:43:48;3.97;;;2.40;;
74920;SDS011;63483;47.384;8.860;2023-07-08T12:46:15;3.63;;;2.40;;
74920;SDS011;63483;47.384;8.860;2023-07-08T12:48:42;3.13;;;2.00;;
74920;SDS011;63483;47.384;8.860;2023-07-08T12:51:12;4.60;;;1.80;;
74920;SDS011;63483;47.384;8.860;2023-07-08T12:53:46;3.75;;;2.35;;
74920;SDS011;63483;47.384;8.860;2023-07-08T12:56:12;4.07;;;2.40;;
74920;SDS011;63483;47.384;8.860;2023-07-08T12:58:39;3.80;;;2.00;;
74920;SDS011;63483;47.384;8.860;2023-07-08T13:01:07;3.75;;;2.08;;
74920;SDS011;63483;47.384;8.860;2023-07-08T13:03:37;3.72;;;1.90;;
74920;SDS011;63483;47.384;8.860;2023-07-08T13:06:07;5.30;;;2.10;;
74920;SDS011;63483;47.384;8.860;2023-07-08T13:08:35;15.80;;;2.60;;
74920;SDS011;63483;47.384;8.860;2023-07-08T13:11:02;6.72;;;2.10;;
74920;SDS011;63483;47.384;8.860;2023-07-08T13:13:35;4.90;;;2.38;;
74920;SDS011;63483;47.384;8.860;2023-07-08T13:16:03;6.15;;;1.70;;
74920;SDS011;63483;47.384;8.860;2023-07-08T13:21:03;3.57;;;1.93;;
74920;SDS011;63483;47.384;8.860;2023-07-08T13:23:30;5.90;;;2.10;;
74920;SDS011;63483;47.384;8.860;2023-07-08T13:25:56;7.57;;;2.70;;
74920;SDS011;63483;47.384;8.860;2023-07-08T13:28:23;7.20;;;2.23;;
74920;SDS011;63483;47.384;8.860;2023-07-08T13:31:34;6.40;;;2.13;;
74920;SDS011;63483;47.384;8.860;2023-07-08T13:33:49;3.35;;;1.90;;
74920;SDS011;63483;47.384;8.860;2023-07-08T13:36:17;7.47;;;1.95;;
74920;SDS011;63483;47.384;8.860;2023-07-08T13:38:44;8.73;;;2.30;;
74920;SDS011;63483;47.384;8.860;2023-07-08T13:41:10;4.68;;;1.67;;
74920;SDS011;63483;47.384;8.860;2023-07-08T13:43:38;3.63;;;1.50;;
74920;SDS011;63483;47.384;8.860;2023-07-08T13:46:06;3.67;;;1.70;;
74920;SDS011;63483;47.384;8.860;2023-07-08T13:48:50;3.53;;;1.63;;
74920;SDS011;63483;47.384;8.860;2023-07-08T13:51:18;6.40;;;1.90;;
74920;SDS011;63483;47.384;8.860;2023-07-08T13:53:49;3.15;;;1.35;;
74920;SDS011;63483;47.384;8.860;2023-07-08T13:56:29;5.15;;;1.63;;
74920;SDS011;63483;47.384;8.860;2023-07-08T13:59:01;3.38;;;1.50;;
74920;SDS011;63483;47.384;8.860;2023-07-08T14:01:27;2.97;;;1.75;;
74920;SDS011;63483;47.384;8.860;2023-07-08T14:03:55;3.70;;;1.70;;
74920;SDS011;63483;47.384;8.860;2023-07-08T14:06:25;3.65;;;1.80;;
74920;SDS011;63483;47.384;8.860;2023-07-08T14:08:56;3.33;;;1.60;;
74920;SDS011;63483;47.384;8.860;2023-07-08T14:11:23;3.00;;;1.50;;
74920;SDS011;63483;47.384;8.860;2023-07-08T14:13:49;3.43;;;1.50;;
74920;SDS011;63483;47.384;8.860;2023-07-08T14:16:25;3.60;;;1.70;;
74920;SDS011;63483;47.384;8.860;2023-07-08T14:18:57;3.03;;;1.42;;
74920;SDS011;63483;47.384;8.860;2023-07-08T14:21:24;2.47;;;1.50;;
74920;SDS011;63483;47.384;8.860;2023-07-08T14:23:49;3.17;;;1.48;;
74920;SDS011;63483;47.384;8.860;2023-07-08T14:26:15;2.47;;;1.10;;
74920;SDS011;63483;47.384;8.860;2023-07-08T14:28:40;3.20;;;1.30;;
74920;SDS011;63483;47.384;8.860;2023-07-08T14:31:12;3.97;;;2.00;;
74920;SDS011;63483;47.384;8.860;2023-07-08T14:33:42;5.15;;;1.30;;
74920;SDS011;63483;47.384;8.860;2023-07-08T14:36:10;3.17;;;1.40;;
74920;SDS011;63483;47.384;8.860;2023-07-08T14:38:37;3.05;;;1.70;;
74920;SDS011;63483;47.384;8.860;2023-07-08T14:41:02;3.70;;;1.87;;
74920;SDS011;63483;47.384;8.860;2023-07-08T14:43:29;3.35;;;1.67;;
74920;SDS011;63483;47.384;8.860;2023-07-08T14:45:56;4.90;;;1.90;;
74920;SDS011;63483;47.384;8.860;2023-07-08T14:48:24;4.60;;;2.00;;
74920;SDS011;63483;47.384;8.860;2023-07-08T14:50:52;3.07;;;1.87;;
74920;SDS011;63483;47.384;8.860;2023-07-08T14:53:18;3.28;;;1.55;;
74920;SDS011;63483;47.384;8.860;2023-07-08T14:55:44;2.80;;;1.50;;
74920;SDS011;63483;47.384;8.860;2023-07-08T14:58:19;3.70;;;1.70;;
74920;SDS011;63483;47.384;8.860;2023-07-08T15:00:50;4.78;;;1.70;;
74920;SDS011;63483;47.384;8.860;2023-07-08T15:03:16;3.40;;;2.10;;
74920;SDS011;63483;47.384;8.860;2023-07-08T15:05:42;5.13;;;1.85;;
74920;SDS011;63483;47.384;8.860;2023-07-08T15:08:07;3.67;;;1.70;;
74920;SDS011;63483;47.384;8.860;2023-07-08T15:10:33;3.73;;;1.90;;
74920;SDS011;63483;47.384;8.860;2023-07-08T15:13:00;4.53;;;1.70;;
74920;SDS011;63483;47.384;8.860;2023-07-08T15:15:28;4.15;;;2.40;;
74920;SDS011;63483;47.384;8.860;2023-07-08T15:17:56;3.05;;;1.60;;
74920;SDS011;63483;47.384;8.860;2023-07-08T15:20:22;3.88;;;1.75;;
74920;SDS011;63483;47.384;8.860;2023-07-08T15:22:49;2.90;;;1.90;;
74920;SDS011;63483;47.384;8.860;2023-07-08T15:25:15;5.40;;;1.80;;
74920;SDS011;63483;47.384;8.860;2023-07-08T15:27:41;4.82;;;1.90;;
74920;SDS011;63483;47.384;8.860;2023-07-08T15:30:18;4.45;;;2.17;;
74920;SDS011;63483;47.384;8.860;2023-07-08T15:32:45;6.00;;;2.00;;
74920;SDS011;63483;47.384;8.860;2023-07-08T15:35:12;4.82;;;2.17;;
74920;SDS011;63483;47.384;8.860;2023-07-08T15:37:39;7.73;;;2.20;;
74920;SDS011;63483;47.384;8.860;2023-07-08T15:40:04;4.78;;;1.80;;
74920;SDS011;63483;47.384;8.860;2023-07-08T15:42:34;4.63;;;2.10;;
74920;SDS011;63483;47.384;8.860;2023-07-08T15:45:00;4.07;;;1.80;;
74920;SDS011;63483;47.384;8.860;2023-07-08T15:47:26;4.43;;;1.67;;
74920;SDS011;63483;47.384;8.860;2023-07-08T15:49:51;2.97;;;1.70;;